Time;durP1;ratioP1;P1;durP2;ratioP2;P2;SDS_P1;SDS_P2;PMS_P1;PMS_P2;Temp;Humidity;BMP_temperature;BMP_pressure;BME280_temperature;BME280_humidity;BME280_pressure;Samples;Min_cycle;Max_cycle;Signal;HPM_P1;HPM_P2
2022/11/16 00:01:39;;;;;;;7.93;3.57;;;15.30;94.00;;;;;;5043086;28;20201;-91
2022/11/16 00:04:11;;;;;;;9.80;4.40;;;15.30;94.00;;;;;;5046269;28;20224;-92
2022/11/16 00:06:53;;;;;;;6.63;3.17;;;15.30;94.00;;;;;;5053891;28;20223;-92
2022/11/16 00:09:24;;;;;;;9.47;3.93;;;15.20;94.00;;;;;;5050800;28;20203;-92
2022/11/16 00:11:55;;;;;;;9.63;3.90;;;15.20;94.00;;;;;;5046593;28;20723;-93
2022/11/16 00:14:37;;;;;;;8.40;4.03;;;15.20;94.10;;;;;;5046179;28;20208;-92
2022/11/16 00:17:08;;;;;;;8.10;3.93;;;15.20;94.20;;;;;;5048543;28;20204;-92
2022/11/16 00:22:19;;;;;;;8.33;4.27;;;15.10;94.10;;;;;;5059933;28;20218;-92
2022/11/16 00:24:49;;;;;;;9.90;3.77;;;15.10;94.20;;;;;;5060518;28;20247;-92
2022/11/16 00:27:18;;;;;;;9.40;3.93;;;15.10;94.20;;;;;;5044675;28;20223;-91
2022/11/16 00:29:47;;;;;;;10.57;4.73;;;15.10;94.20;;;;;;5038999;28;20211;-90
2022/11/16 00:32:17;;;;;;;7.83;3.87;;;15.10;94.20;;;;;;5038501;28;20197;-91
2022/11/16 00:34:45;;;;;;;8.30;4.43;;;15.10;94.20;;;;;;5037421;28;20208;-91
2022/11/16 00:37:25;;;;;;;11.23;4.93;;;15.00;94.10;;;;;;5038450;28;21004;-91
2022/11/16 00:39:52;;;;;;;7.20;4.07;;;15.00;94.20;;;;;;5037694;28;20216;-91
2022/11/16 00:42:20;;;;;;;8.73;4.70;;;15.00;94.10;;;;;;5038977;28;20247;-90
2022/11/16 00:45:02;;;;;;;10.13;4.40;;;15.00;94.10;;;;;;5041847;28;20227;-92
2022/11/16 00:47:29;;;;;;;9.93;4.53;;;15.00;94.30;;;;;;5028183;28;20225;-91
2022/11/16 00:49:58;;;;;;;11.03;5.17;;;14.90;94.10;;;;;;5036430;28;20206;-91
2022/11/16 00:52:28;;;;;;;11.13;4.27;;;14.90;94.20;;;;;;5043408;28;20614;-92
2022/11/16 00:55:02;;;;;;;8.70;3.97;;;14.90;94.10;;;;;;5043662;28;20199;-91
2022/11/16 00:57:32;;;;;;;11.43;4.90;;;14.90;94.00;;;;;;5043944;28;20196;-91
2022/11/16 01:00:03;;;;;;;11.50;4.73;;;14.90;94.00;;;;;;5043564;28;20652;-92
2022/11/16 01:02:32;;;;;;;10.27;4.60;;;14.90;93.90;;;;;;5043713;28;20203;-91
2022/11/16 01:05:12;;;;;;;11.53;4.30;;;14.90;93.90;;;;;;5043829;28;20674;-91
2022/11/16 01:07:41;;;;;;;11.97;4.67;;;14.80;93.80;;;;;;5035624;28;20301;-91
2022/11/16 01:10:19;;;;;;;7.07;3.77;;;14.80;93.60;;;;;;5028266;28;20243;-91
2022/11/16 01:12:47;;;;;;;10.10;4.43;;;14.80;93.90;;;;;;5031936;28;20211;-91
2022/11/16 01:15:27;;;;;;;10.57;4.30;;;14.80;93.50;;;;;;5028847;28;20279;-92
2022/11/16 01:17:58;;;;;;;9.57;4.17;;;14.70;93.50;;;;;;5025383;28;20228;-91
2022/11/16 01:20:31;;;;;;;12.90;4.73;;;14.70;93.50;;;;;;5025471;28;20235;-93
2022/11/16 01:23:05;;;;;;;8.27;3.60;;;14.70;93.40;;;;;;5046294;28;20211;-92
2022/11/16 01:25:47;;;;;;;9.80;3.80;;;14.60;93.30;;;;;;5044541;28;20654;-91
2022/11/16 01:28:25;;;;;;;11.83;4.43;;;14.60;93.30;;;;;;5044175;28;20232;-92
2022/11/16 01:31:02;;;;;;;12.00;3.97;;;14.60;93.20;;;;;;5046034;28;20212;-91
2022/11/16 01:33:34;;;;;;;11.67;4.50;;;14.50;93.00;;;;;;5045686;28;20209;-92
2022/11/16 01:36:24;;;;;;;12.03;4.03;;;14.50;93.00;;;;;;5054045;28;20399;-91
2022/11/16 01:38:59;;;;;;;9.03;3.20;;;14.50;93.00;;;;;;5043409;28;20202;-91
2022/11/16 01:41:29;;;;;;;11.43;4.17;;;14.50;92.90;;;;;;5047215;28;20189;-91
2022/11/16 01:44:03;;;;;;;10.17;3.97;;;14.50;92.80;;;;;;5044185;28;20732;-91
2022/11/16 01:46:36;;;;;;;8.27;3.77;;;14.40;92.80;;;;;;5061846;28;20224;-91
2022/11/16 01:49:19;;;;;;;9.13;3.60;;;14.30;92.50;;;;;;5067071;28;20219;-91
2022/11/16 01:51:57;;;;;;;10.27;3.97;;;14.40;92.60;;;;;;5058966;28;20207;-92
2022/11/16 01:54:25;;;;;;;12.37;3.80;;;14.30;92.50;;;;;;5044370;28;20230;-90
2022/11/16 01:57:12;;;;;;;12.13;4.00;;;14.30;92.50;;;;;;5050043;28;20210;-91
2022/11/16 02:00:03;;;;;;;12.43;4.73;;;14.20;92.50;;;;;;5054443;28;20200;-90
2022/11/16 02:02:44;;;;;;;13.63;4.77;;;14.20;92.40;;;;;;5047554;28;20648;-91
2022/11/16 02:05:19;;;;;;;7.80;3.50;;;14.10;92.30;;;;;;5055223;28;20185;-91
2022/11/16 02:11:16;;;;;;;6.37;2.97;;;14.10;92.30;;;;;;5056705;28;20663;-91
2022/11/16 02:13:58;;;;;;;12.10;4.13;;;14.00;92.20;;;;;;5054050;28;20270;-92
2022/11/16 02:16:42;;;;;;;14.83;4.60;;;14.00;92.20;;;;;;5054493;28;20232;-90
2022/11/16 02:19:46;;;;;;;8.97;3.47;;;14.00;92.10;;;;;;5053759;28;20208;-91
2022/11/16 02:22:37;;;;;;;8.67;3.30;;;13.90;92.20;;;;;;5054385;28;20283;-92
2022/11/16 02:25:11;;;;;;;10.33;3.77;;;13.90;92.20;;;;;;5055172;28;20192;-92
2022/11/16 02:28:12;;;;;;;13.20;4.53;;;13.80;92.10;;;;;;5054522;28;20221;-92
2022/11/16 02:31:13;;;;;;;10.13;3.80;;;13.80;92.00;;;;;;5055130;28;20204;-92
2022/11/16 02:33:45;;;;;;;11.33;3.67;;;13.70;91.90;;;;;;5055340;28;20200;-93
2022/11/16 02:36:24;;;;;;;8.70;3.30;;;13.70;92.00;;;;;;5055315;28;20196;-91
2022/11/16 02:39:02;;;;;;;11.50;3.33;;;13.60;91.90;;;;;;5050454;28;20199;-90
2022/11/16 02:44:35;;;;;;;8.63;2.97;;;13.60;91.90;;;;;;5055755;28;20218;-91
2022/11/16 02:47:44;;;;;;;10.83;2.80;;;13.50;91.80;;;;;;5074316;28;20225;-92
2022/11/16 02:50:28;;;;;;;8.53;2.97;;;13.50;91.80;;;;;;5076367;28;20231;-92
2022/11/16 02:53:11;;;;;;;8.87;3.37;;;13.40;91.70;;;;;;5060629;28;20214;-91
2022/11/16 02:55:44;;;;;;;10.60;3.50;;;13.40;91.70;;;;;;5045032;28;20184;-91
2022/11/16 02:58:22;;;;;;;10.60;3.70;;;13.40;91.70;;;;;;5051811;28;20218;-92
2022/11/16 03:01:02;;;;;;;4.00;1.97;;;13.30;91.70;;;;;;5067919;28;20185;-91
2022/11/16 03:03:52;;;;;;;8.77;2.87;;;13.30;91.70;;;;;;5055629;28;20197;-91
2022/11/16 03:06:42;;;;;;;5.57;2.27;;;13.20;91.60;;;;;;5045945;28;20209;-92
2022/11/16 03:09:21;;;;;;;3.60;1.73;;;13.30;91.70;;;;;;5040878;28;20542;-91
2022/11/16 03:12:10;;;;;;;9.87;3.07;;;13.20;91.60;;;;;;5043789;28;20232;-92
2022/11/16 03:14:49;;;;;;;7.80;2.60;;;13.20;91.60;;;;;;5059946;28;20202;-91
2022/11/16 03:17:26;;;;;;;6.50;2.57;;;13.10;91.40;;;;;;5055849;28;20302;-91
2022/11/16 03:23:12;;;;;;;8.80;2.97;;;13.10;91.40;;;;;;5038552;28;20255;-91
2022/11/16 03:25:53;;;;;;;8.03;2.47;;;13.00;91.30;;;;;;5019855;28;20205;-93
2022/11/16 03:28:36;;;;;;;7.07;2.17;;;13.00;91.30;;;;;;5018216;28;20228;-91
2022/11/16 03:31:15;;;;;;;8.80;2.40;;;12.90;91.40;;;;;;5024190;28;20189;-92
2022/11/16 03:33:46;;;;;;;8.50;2.70;;;12.80;91.40;;;;;;5040084;28;20710;-91
2022/11/16 03:36:31;;;;;;;8.50;2.50;;;12.80;91.40;;;;;;5047777;28;20188;-92
2022/11/16 03:39:14;;;;;;;7.00;2.03;;;12.70;91.40;;;;;;5042493;28;20192;-92
2022/11/16 03:41:52;;;;;;;8.53;2.80;;;12.70;91.40;;;;;;5045862;28;20222;-92
2022/11/16 03:44:24;;;;;;;8.17;2.53;;;12.70;91.60;;;;;;5049014;28;20221;-91
2022/11/16 03:46:53;;;;;;;9.10;2.67;;;12.70;91.80;;;;;;5046388;28;20652;-92
2022/11/16 03:49:23;;;;;;;10.93;3.03;;;12.60;91.70;;;;;;5041447;28;20193;-92
2022/11/16 03:51:55;;;;;;;10.27;2.73;;;12.60;91.80;;;;;;5041233;28;20242;-91
2022/11/16 03:54:36;;;;;;;10.60;3.57;;;12.60;91.80;;;;;;5040381;28;20228;-92
2022/11/16 03:57:24;;;;;;;9.70;2.90;;;12.50;91.90;;;;;;5042027;28;20259;-90
2022/11/16 04:00:03;;;;;;;10.40;3.03;;;12.50;92.00;;;;;;5027792;28;20259;-92
2022/11/16 04:02:43;;;;;;;10.83;3.30;;;12.50;92.30;;;;;;5054806;28;20215;-91
2022/11/16 04:25:47;;;;;;;9.57;2.87;;;12.30;92.40;;;;;;5052817;28;20272;-92
2022/11/16 04:28:23;;;;;;;12.60;3.47;;;12.30;92.30;;;;;;5050316;28;20238;-91
2022/11/16 04:39:20;;;;;;;7.97;2.50;;;12.20;92.50;;;;;;5071905;28;20268;-91
2022/11/16 04:50:20;;;;;;;13.43;3.67;;;12.10;92.60;;;;;;5051465;28;20264;-92
2022/11/16 04:52:50;;;;;;;8.97;3.57;;;12.10;92.70;;;;;;5052626;28;20204;-91
2022/11/16 04:55:23;;;;;;;7.30;2.87;;;12.10;92.80;;;;;;5052702;28;20206;-91
2022/11/16 04:58:02;;;;;;;10.77;3.53;;;12.10;92.90;;;;;;5052403;28;20205;-92
2022/11/16 05:00:39;;;;;;;8.20;2.83;;;12.10;92.90;;;;;;5051465;28;20538;-92
2022/11/16 05:03:13;;;;;;;9.47;3.07;;;12.10;92.90;;;;;;5048754;28;20196;-92
2022/11/16 05:05:45;;;;;;;11.37;3.90;;;12.10;92.90;;;;;;5040893;28;20236;-91
2022/11/16 05:08:15;;;;;;;10.73;3.20;;;12.10;93.00;;;;;;5028480;28;20233;-91
2022/11/16 05:10:51;;;;;;;10.93;3.73;;;12.10;93.00;;;;;;5025187;28;20598;-91
2022/11/16 05:13:25;;;;;;;16.23;4.50;;;12.00;93.10;;;;;;5033117;28;20199;-91
2022/11/16 05:16:02;;;;;;;12.63;3.33;;;12.00;93.00;;;;;;5047871;28;20199;-91
2022/11/16 05:18:39;;;;;;;7.77;2.97;;;12.00;93.20;;;;;;5049490;28;20205;-91
2022/11/16 05:21:12;;;;;;;5.07;2.53;;;12.00;93.20;;;;;;5051090;28;20197;-92
2022/11/16 05:26:32;;;;;;;10.33;3.67;;;12.00;93.20;;;;;;5074267;28;20219;-91
2022/11/16 05:29:02;;;;;;;9.10;3.00;;;12.00;93.20;;;;;;5072053;28;20229;-92
2022/11/16 05:31:35;;;;;;;12.00;3.43;;;12.00;93.20;;;;;;5067084;28;20323;-92
2022/11/16 05:34:14;;;;;;;12.67;3.80;;;12.00;93.20;;;;;;5074144;28;20202;-92
2022/11/16 05:36:41;;;;;;;9.67;2.93;;;12.00;93.20;;;;;;5072093;28;20232;-91
2022/11/16 05:39:18;;;;;;;14.87;4.50;;;12.00;93.10;;;;;;5071753;28;20196;-91
2022/11/16 05:41:48;;;;;;;7.83;3.10;;;12.00;93.10;;;;;;5057068;28;20274;-92
2022/11/16 05:44:17;;;;;;;10.57;3.60;;;12.00;93.00;;;;;;5041347;28;20631;-92
2022/11/16 05:46:49;;;;;;;10.00;3.27;;;12.00;93.00;;;;;;5049702;28;20249;-92
2022/11/16 05:49:17;;;;;;;15.90;4.80;;;12.00;93.00;;;;;;5050993;28;20228;-92
2022/11/16 05:51:46;;;;;;;11.60;3.87;;;12.00;92.90;;;;;;5025216;28;20237;-92
2022/11/16 05:54:14;;;;;;;12.80;3.87;;;12.00;92.90;;;;;;5012863;28;20202;-93
2022/11/16 05:56:41;;;;;;;21.40;5.30;;;12.00;92.90;;;;;;5021720;28;20258;-92
2022/11/16 05:59:11;;;;;;;11.77;4.00;;;12.00;92.90;;;;;;5045117;28;20213;-91
2022/11/16 06:01:39;;;;;;;17.10;4.67;;;12.00;92.90;;;;;;5039586;28;20193;-92
2022/11/16 06:04:09;;;;;;;13.07;2.80;;;12.00;92.90;;;;;;5031945;28;20658;-92
2022/11/16 06:06:39;;;;;;;11.57;3.53;;;11.90;92.90;;;;;;5033914;28;20201;-91
2022/11/16 06:09:08;;;;;;;15.30;4.77;;;12.00;92.90;;;;;;5048496;28;20228;-91
2022/11/16 06:11:36;;;;;;;12.57;4.53;;;11.90;92.90;;;;;;5051383;28;20204;-91
2022/11/16 06:14:04;;;;;;;9.57;3.73;;;11.90;92.80;;;;;;5051091;28;20192;-91
2022/11/16 06:16:31;;;;;;;18.03;5.00;;;11.90;92.90;;;;;;5040917;28;20239;-92
2022/11/16 06:19:00;;;;;;;13.37;4.27;;;11.90;92.80;;;;;;5031194;28;20209;-92
2022/11/16 06:21:33;;;;;;;11.60;4.17;;;11.90;92.80;;;;;;5032751;28;20598;-93
2022/11/16 06:24:01;;;;;;;14.30;4.40;;;11.90;92.80;;;;;;5031279;28;20207;-91
2022/11/16 06:26:29;;;;;;;15.67;4.23;;;11.90;92.70;;;;;;5031591;28;20723;-90
2022/11/16 06:29:01;;;;;;;16.67;3.93;;;11.90;92.70;;;;;;5032001;28;20233;-91
2022/11/16 06:31:30;;;;;;;16.00;4.77;;;11.90;92.60;;;;;;5034215;28;20682;-91
2022/11/16 06:33:59;;;;;;;12.37;3.87;;;11.90;92.70;;;;;;5030660;28;20240;-92
2022/11/16 06:36:27;;;;;;;12.60;3.67;;;11.90;92.60;;;;;;5046228;28;20235;-91
2022/11/16 06:38:56;;;;;;;10.77;3.10;;;11.80;92.50;;;;;;5051334;28;20201;-91
2022/11/16 06:41:24;;;;;;;16.57;4.37;;;11.80;92.50;;;;;;5045769;28;20667;-92
2022/11/16 06:43:54;;;;;;;15.17;4.93;;;11.90;92.50;;;;;;5045687;28;20292;-92
2022/11/16 06:46:23;;;;;;;10.93;3.40;;;11.80;92.50;;;;;;5037981;28;20216;-92
2022/11/16 06:48:52;;;;;;;17.07;5.43;;;11.80;92.40;;;;;;5034162;28;20259;-93
2022/11/16 06:51:19;;;;;;;15.83;4.70;;;11.80;92.50;;;;;;5042822;28;20205;-93
2022/11/16 06:53:50;;;;;;;10.77;3.63;;;11.80;92.40;;;;;;5038024;28;20208;-93
2022/11/16 06:56:19;;;;;;;12.87;3.87;;;11.80;92.40;;;;;;5052317;28;20534;-93
2022/11/16 06:58:46;;;;;;;12.97;3.90;;;11.70;92.80;;;;;;5054524;28;20196;-93
2022/11/16 07:01:19;;;;;;;24.80;4.23;;;11.80;92.50;;;;;;5056665;28;20668;-92
2022/11/16 07:03:47;;;;;;;11.57;3.57;;;11.70;92.50;;;;;;5057827;28;20204;-92
2022/11/16 07:06:15;;;;;;;13.63;4.13;;;11.70;92.50;;;;;;5039431;28;20232;-92
2022/11/16 07:08:56;;;;;;;13.27;3.97;;;11.70;92.50;;;;;;5034432;28;20224;-92
2022/11/16 07:11:36;;;;;;;19.83;5.43;;;11.70;92.50;;;;;;5029676;28;20205;-91
2022/11/16 07:14:04;;;;;;;13.00;4.43;;;11.60;92.50;;;;;;5032204;28;20283;-92
2022/11/16 07:16:36;;;;;;;14.00;4.33;;;11.60;92.50;;;;;;5030414;28;20215;-91
2022/11/16 07:19:04;;;;;;;19.50;6.13;;;11.60;92.40;;;;;;5028377;28;20232;-92
2022/11/16 07:21:34;;;;;;;17.80;5.27;;;11.60;92.40;;;;;;5044826;28;20215;-92
2022/11/16 07:24:05;;;;;;;15.80;4.80;;;11.50;92.50;;;;;;5042427;28;20575;-93
2022/11/16 07:26:36;;;;;;;19.00;5.33;;;11.50;92.60;;;;;;5041691;28;20214;-92
2022/11/16 07:29:05;;;;;;;19.73;5.40;;;11.50;92.70;;;;;;5029512;28;20674;-92
2022/11/16 07:31:34;;;;;;;20.83;5.13;;;11.50;92.70;;;;;;5032799;28;20209;-94
2022/11/16 07:34:03;;;;;;;16.13;4.53;;;11.50;92.80;;;;;;5040122;28;20189;-91
2022/11/16 07:36:44;;;;;;;10.80;3.43;;;11.50;92.90;;;;;;5049056;28;20192;-92
2022/11/16 07:39:12;;;;;;;10.00;3.10;;;11.40;93.00;;;;;;5040531;28;20200;-91
2022/11/16 07:42:00;;;;;;;15.33;4.43;;;11.40;93.00;;;;;;5036487;28;20564;-91
2022/11/16 07:44:28;;;;;;;14.67;5.13;;;11.40;93.00;;;;;;5032051;28;20335;-91
2022/11/16 07:46:59;;;;;;;15.83;4.67;;;11.40;93.00;;;;;;5032729;28;20291;-90
2022/11/16 07:49:26;;;;;;;11.20;3.77;;;11.40;93.10;;;;;;5032994;28;20275;-92
2022/11/16 07:51:55;;;;;;;14.43;4.07;;;11.40;93.10;;;;;;5036702;28;20220;-91
2022/11/16 07:54:22;;;;;;;12.33;3.87;;;11.40;93.20;;;;;;5033902;28;20220;-91
2022/11/16 07:56:52;;;;;;;16.33;4.77;;;11.40;93.30;;;;;;5035345;28;20213;-91
2022/11/16 07:59:22;;;;;;;12.27;3.67;;;11.40;93.40;;;;;;5035486;28;20268;-90
2022/11/16 08:01:50;;;;;;;11.47;3.67;;;11.40;93.50;;;;;;5036290;28;20208;-91
2022/11/16 08:04:22;;;;;;;11.50;4.23;;;11.40;93.50;;;;;;5033663;28;20211;-91
2022/11/16 08:06:50;;;;;;;14.97;4.50;;;11.30;93.60;;;;;;5037868;28;20283;-91
2022/11/16 08:09:18;;;;;;;14.23;3.80;;;11.40;93.60;;;;;;5030436;28;20228;-90
2022/11/16 08:11:50;;;;;;;10.70;3.47;;;11.40;93.60;;;;;;5022831;28;20232;-90
2022/11/16 08:14:20;;;;;;;10.83;3.57;;;11.40;93.70;;;;;;5018684;28;20625;-90
2022/11/16 08:16:48;;;;;;;11.07;3.47;;;11.40;93.80;;;;;;5017334;28;20212;-91
2022/11/16 08:19:25;;;;;;;8.83;3.00;;;11.40;93.80;;;;;;5019982;28;20210;-92
2022/11/16 08:21:53;;;;;;;17.47;4.60;;;11.40;94.00;;;;;;5018320;28;20301;-90
2022/11/16 08:24:21;;;;;;;15.03;3.93;;;11.50;93.80;;;;;;5027692;28;20649;-92
2022/11/16 08:26:49;;;;;;;15.10;3.93;;;11.50;93.90;;;;;;5030546;28;20251;-91
2022/11/16 08:29:30;;;;;;;12.60;4.03;;;11.50;93.90;;;;;;5031013;28;20300;-90
2022/11/16 08:32:00;;;;;;;12.67;3.90;;;11.50;94.20;;;;;;5044990;28;20192;-92
2022/11/16 08:34:30;;;;;;;16.23;5.03;;;11.50;94.20;;;;;;5044550;28;20296;-91
2022/11/16 08:37:03;;;;;;;6.20;2.53;;;11.60;94.30;;;;;;5028529;28;20220;-90
2022/11/16 08:39:34;;;;;;;10.77;3.50;;;11.60;94.30;;;;;;5018912;28;20577;-92
2022/11/16 08:42:05;;;;;;;9.90;3.73;;;11.60;94.20;;;;;;5015274;28;20190;-91
2022/11/16 08:44:37;;;;;;;8.50;3.20;;;11.70;94.20;;;;;;5012654;28;20221;-92
2022/11/16 08:47:04;;;;;;;14.80;3.83;;;11.70;94.40;;;;;;5023484;28;20239;-92
2022/11/16 08:49:35;;;;;;;11.00;3.83;;;11.70;94.30;;;;;;5031241;28;20240;-91
2022/11/16 08:52:03;;;;;;;17.30;4.27;;;11.80;94.40;;;;;;5028573;28;20203;-91
2022/11/16 08:54:32;;;;;;;12.53;4.17;;;11.80;94.40;;;;;;5031966;28;20212;-92
2022/11/16 08:56:59;;;;;;;14.17;4.17;;;11.80;94.20;;;;;;5030823;28;20208;-91
2022/11/16 08:59:26;;;;;;;13.13;4.47;;;11.90;94.30;;;;;;5030591;28;20203;-90
2022/11/16 09:01:58;;;;;;;13.23;4.50;;;11.90;94.20;;;;;;5031419;28;20204;-91
2022/11/16 09:04:25;;;;;;;15.17;4.83;;;11.90;94.30;;;;;;5030785;28;21065;-91
2022/11/16 09:06:55;;;;;;;18.13;6.13;;;12.00;94.10;;;;;;5032114;28;20204;-91
2022/11/16 09:09:29;;;;;;;14.23;4.53;;;12.10;94.10;;;;;;5030475;28;20232;-91
2022/11/16 09:11:56;;;;;;;16.97;5.47;;;12.10;94.00;;;;;;5033231;28;20227;-91
2022/11/16 09:14:33;;;;;;;15.33;4.50;;;12.10;93.90;;;;;;5034741;28;20224;-89
2022/11/16 09:17:06;;;;;;;15.97;5.37;;;12.10;94.00;;;;;;5033708;28;20702;-92
2022/11/16 09:19:33;;;;;;;19.63;5.60;;;12.20;93.80;;;;;;5036103;28;20248;-91
2022/11/16 09:22:02;;;;;;;15.33;4.30;;;12.20;93.80;;;;;;5034008;28;20244;-91
2022/11/16 09:24:36;;;;;;;10.30;3.73;;;12.20;93.60;;;;;;5047594;28;20217;-91
2022/11/16 09:27:03;;;;;;;15.47;5.40;;;12.30;93.70;;;;;;5042790;28;20276;-93
2022/11/16 09:29:30;;;;;;;18.57;4.63;;;12.30;93.60;;;;;;5052416;28;20234;-90
2022/11/16 09:32:07;;;;;;;6.27;3.13;;;12.40;93.60;;;;;;5053860;28;20497;-92
2022/11/16 09:34:37;;;;;;;15.27;4.03;;;12.40;93.50;;;;;;5036346;28;20812;-92
2022/11/16 09:37:07;;;;;;;13.50;4.23;;;12.40;93.50;;;;;;5033452;28;20255;-92
2022/11/16 09:39:34;;;;;;;13.63;4.60;;;12.40;93.50;;;;;;5032004;28;20209;-92
2022/11/16 09:42:20;;;;;;;17.77;4.60;;;12.50;93.50;;;;;;5032153;28;20200;-91
2022/11/16 09:45:03;;;;;;;14.93;4.73;;;12.50;93.50;;;;;;5032078;28;20298;-92
2022/11/16 09:47:42;;;;;;;16.20;4.13;;;12.50;93.50;;;;;;5031319;28;20216;-92
2022/11/16 09:50:24;;;;;;;16.67;4.70;;;12.60;93.40;;;;;;5031618;28;20700;-91
2022/11/16 09:52:59;;;;;;;15.33;4.37;;;12.60;93.30;;;;;;5031012;28;20204;-91
2022/11/16 09:55:33;;;;;;;12.57;4.00;;;12.60;93.30;;;;;;5030990;28;20247;-91
2022/11/16 09:58:08;;;;;;;12.23;3.93;;;12.60;93.40;;;;;;5031045;28;20229;-91
2022/11/16 10:00:36;;;;;;;16.60;4.67;;;12.70;93.30;;;;;;5031296;28;20232;-91
2022/11/16 10:03:10;;;;;;;15.63;5.13;;;12.70;93.40;;;;;;5031651;28;20209;-90
2022/11/16 10:05:47;;;;;;;14.00;4.37;;;12.70;93.30;;;;;;5029522;28;20213;-94
2022/11/16 10:08:21;;;;;;;11.77;4.77;;;12.80;93.20;;;;;;5032358;28;20231;-92
2022/11/16 10:10:59;;;;;;;15.87;5.43;;;12.90;93.30;;;;;;5031339;28;20749;-92
2022/11/16 10:13:42;;;;;;;14.97;4.37;;;12.90;93.50;;;;;;5033098;28;20636;-90
2022/11/16 10:16:17;;;;;;;11.57;4.37;;;13.00;93.60;;;;;;5030130;28;20212;-92
2022/11/16 10:18:55;;;;;;;10.37;4.03;;;13.00;93.40;;;;;;5033960;28;20201;-93
2022/11/16 10:21:55;;;;;;;11.87;4.30;;;13.10;93.40;;;;;;5044696;28;20204;-91
2022/11/16 10:24:52;;;;;;;12.03;4.83;;;13.20;93.40;;;;;;5046375;28;20214;-92
2022/11/16 10:27:43;;;;;;;11.20;3.70;;;13.30;93.30;;;;;;5052401;28;20275;-91
2022/11/16 10:30:15;;;;;;;10.27;3.87;;;13.30;92.90;;;;;;5043236;28;20235;-92
2022/11/16 10:32:49;;;;;;;13.80;4.47;;;13.30;92.90;;;;;;5033763;28;20209;-92
2022/11/16 10:35:33;;;;;;;10.97;3.87;;;13.40;92.90;;;;;;5033087;28;20194;-93
2022/11/16 10:40:55;;;;;;;14.63;4.67;;;13.50;92.60;;;;;;5032177;28;20264;-92
2022/11/16 10:43:28;;;;;;;9.33;3.60;;;13.50;92.50;;;;;;5034697;28;20299;-93
2022/11/16 10:49:06;;;;;;;13.03;4.17;;;13.60;92.30;;;;;;5008977;28;20239;-92
2022/11/16 10:51:37;;;;;;;12.43;4.40;;;13.60;92.50;;;;;;5013195;28;20202;-92
2022/11/16 10:54:13;;;;;;;17.90;4.47;;;13.60;92.40;;;;;;5028138;28;20201;-93
2022/11/16 10:56:44;;;;;;;12.13;3.60;;;13.70;92.40;;;;;;5033482;28;20217;-92
2022/11/16 10:59:16;;;;;;;12.63;4.17;;;13.70;92.60;;;;;;5029977;28;20315;-93
2022/11/16 11:01:46;;;;;;;16.03;4.80;;;13.70;92.50;;;;;;5031633;28;20212;-91
2022/11/16 11:04:23;;;;;;;11.83;4.50;;;13.80;92.30;;;;;;5032138;28;20207;-93
2022/11/16 11:07:06;;;;;;;11.10;3.53;;;13.80;92.30;;;;;;5033740;28;20193;-93
2022/11/16 11:09:40;;;;;;;13.37;4.37;;;13.80;92.70;;;;;;5037296;28;20302;-92
2022/11/16 11:15:31;;;;;;;12.53;4.27;;;13.90;92.70;;;;;;5124350;27;20528;-90
2022/11/16 11:18:29;;;;;;;16.93;4.97;;;13.90;92.50;;;;;;5093363;28;20193;-92
2022/11/16 11:21:26;;;;;;;20.83;6.17;;;13.90;92.50;;;;;;5092578;28;20269;-90
2022/11/16 11:23:58;;;;;;;16.90;4.40;;;13.90;92.40;;;;;;5083614;28;20758;-94
2022/11/16 11:26:37;;;;;;;13.00;4.73;;;13.90;92.50;;;;;;5077290;28;20217;-95
2022/11/16 11:29:22;;;;;;;12.43;4.13;;;13.90;92.40;;;;;;5072889;28;20210;-91
2022/11/16 11:31:54;;;;;;;12.70;4.47;;;13.90;92.50;;;;;;5086570;28;20622;-91
2022/11/16 11:34:24;;;;;;;11.80;3.90;;;13.90;92.90;;;;;;5090252;28;20233;-92
2022/11/16 11:36:56;;;;;;;17.33;5.30;;;14.00;92.50;;;;;;5093171;28;20212;-90
2022/11/16 11:39:30;;;;;;;13.20;4.67;;;14.00;92.90;;;;;;5088480;28;20199;-91
2022/11/16 11:42:05;;;;;;;14.63;4.60;;;14.00;93.10;;;;;;5089246;28;20270;-90
2022/11/16 11:44:41;;;;;;;16.83;5.13;;;14.00;93.20;;;;;;5075199;28;20229;-91
2022/11/16 11:47:31;;;;;;;10.77;4.07;;;14.10;93.30;;;;;;5093409;28;20649;-92
2022/11/16 11:50:06;;;;;;;11.77;4.73;;;14.10;93.20;;;;;;5092184;28;20208;-90
2022/11/16 11:52:39;;;;;;;11.07;3.43;;;14.20;93.50;;;;;;5079644;28;20201;-90
2022/11/16 11:55:08;;;;;;;16.67;4.37;;;14.20;93.30;;;;;;5073028;28;20249;-90
2022/11/16 11:57:44;;;;;;;13.50;3.90;;;14.20;93.30;;;;;;5072425;28;20234;-90
2022/11/16 12:00:14;;;;;;;16.20;3.77;;;14.30;93.40;;;;;;5077285;28;20295;-90
2022/11/16 12:03:18;;;;;;;10.80;3.50;;;14.30;93.10;;;;;;5094374;28;20606;-90
2022/11/16 12:06:04;;;;;;;9.20;3.10;;;14.40;92.90;;;;;;5093041;28;20286;-92
2022/11/16 12:08:50;;;;;;;13.57;4.03;;;14.40;92.70;;;;;;5098785;28;20205;-92
2022/11/16 12:11:32;;;;;;;11.07;3.57;;;14.50;92.60;;;;;;5097829;28;20232;-92
2022/11/16 12:14:13;;;;;;;11.07;3.57;;;14.50;92.40;;;;;;5099434;28;20232;-91
2022/11/16 12:17:01;;;;;;;13.40;3.83;;;14.50;92.30;;;;;;5101803;28;20206;-91
2022/11/16 12:20:08;;;;;;;11.83;3.60;;;14.60;92.10;;;;;;5106679;28;20213;-91
2022/11/16 12:22:54;;;;;;;10.77;3.57;;;14.60;92.20;;;;;;5012577;28;20630;-91
2022/11/16 12:25:26;;;;;;;11.83;3.50;;;14.60;92.00;;;;;;5005531;28;20241;-92
2022/11/16 12:28:13;;;;;;;15.17;4.80;;;14.60;91.80;;;;;;4997248;28;20219;-91
2022/11/16 12:30:53;;;;;;;15.50;4.10;;;14.60;91.70;;;;;;4996422;28;20215;-91
2022/11/16 12:33:30;;;;;;;10.73;4.23;;;14.60;91.60;;;;;;5074244;28;20944;-91
2022/11/16 12:36:13;;;;;;;10.87;3.80;;;14.70;91.60;;;;;;5082076;28;20222;-92
2022/11/16 12:38:59;;;;;;;7.40;3.00;;;14.60;91.50;;;;;;5086254;28;20643;-91
2022/11/16 12:41:52;;;;;;;7.67;3.70;;;14.60;91.50;;;;;;5087111;28;20214;-91
2022/11/16 12:44:44;;;;;;;10.80;3.47;;;14.70;91.50;;;;;;5086146;28;20202;-91
2022/11/16 12:47:22;;;;;;;9.80;3.57;;;14.70;91.20;;;;;;5061864;28;20256;-91
2022/11/16 12:50:05;;;;;;;12.37;4.83;;;14.70;91.40;;;;;;5071773;28;20233;-91
2022/11/16 12:52:53;;;;;;;11.13;3.53;;;14.70;91.30;;;;;;5074402;28;20205;-91
2022/11/16 12:55:31;;;;;;;13.40;4.47;;;14.70;91.20;;;;;;5074838;28;20221;-90
2022/11/16 12:58:13;;;;;;;12.07;4.43;;;14.70;91.10;;;;;;5069726;28;20891;-90
2022/11/16 13:00:58;;;;;;;11.63;3.43;;;14.70;91.20;;;;;;5064415;28;20235;-90
2022/11/16 13:03:46;;;;;;;11.47;3.23;;;14.70;91.00;;;;;;5081036;28;20202;-92
2022/11/16 13:06:25;;;;;;;10.93;3.57;;;14.70;91.00;;;;;;5085311;28;20203;-90
2022/11/16 13:09:15;;;;;;;9.83;3.17;;;14.70;90.80;;;;;;5084446;28;20206;-91
2022/11/16 13:11:51;;;;;;;7.57;2.73;;;14.80;90.90;;;;;;5089668;28;20213;-92
2022/11/16 13:17:14;;;;;;;12.20;4.07;;;14.80;90.60;;;;;;5090862;28;20217;-91
2022/11/16 13:19:43;;;;;;;9.30;3.27;;;14.80;91.00;;;;;;5094129;28;20198;-90
2022/11/16 13:22:17;;;;;;;7.43;3.00;;;14.80;90.50;;;;;;5085215;28;20210;-91
2022/11/16 13:24:54;;;;;;;9.73;3.23;;;14.80;90.50;;;;;;5079780;28;20219;-90
2022/11/16 13:27:34;;;;;;;14.63;3.73;;;14.80;90.40;;;;;;5073382;28;20242;-91
2022/11/16 13:30:13;;;;;;;9.67;3.47;;;14.80;90.50;;;;;;5073824;28;20209;-90
2022/11/16 13:32:56;;;;;;;13.70;4.37;;;14.90;90.40;;;;;;5071473;28;20297;-91
2022/11/16 13:35:27;;;;;;;13.23;4.23;;;14.90;90.30;;;;;;5070061;28;20657;-90
2022/11/16 13:38:00;;;;;;;11.53;3.73;;;14.90;90.60;;;;;;5069631;28;20268;-90
2022/11/16 13:40:34;;;;;;;12.27;3.40;;;14.90;90.80;;;;;;5065650;28;20294;-90
2022/11/16 13:43:24;;;;;;;11.90;3.87;;;15.00;90.70;;;;;;5050145;28;20245;-91
2022/11/16 13:45:58;;;;;;;11.57;3.90;;;15.00;90.50;;;;;;5050898;28;20212;-90
2022/11/16 13:48:34;;;;;;;10.73;2.77;;;15.10;90.70;;;;;;5075861;28;20553;-92
2022/11/16 13:51:08;;;;;;;10.60;3.27;;;15.10;90.00;;;;;;5080781;28;20230;-91
2022/11/16 13:53:48;;;;;;;14.57;4.00;;;15.10;90.10;;;;;;5081167;28;20275;-91
2022/11/16 13:56:24;;;;;;;8.10;2.53;;;15.20;89.70;;;;;;5083669;28;20208;-91
2022/11/16 13:58:58;;;;;;;13.53;3.90;;;15.20;89.30;;;;;;5082413;28;20197;-92
2022/11/16 14:01:56;;;;;;;9.43;3.57;;;15.30;89.20;;;;;;5080303;28;20731;-91
2022/11/16 14:05:01;;;;;;;10.07;3.03;;;15.30;89.10;;;;;;5079625;28;20274;-91
2022/11/16 14:07:39;;;;;;;7.07;2.53;;;15.30;88.70;;;;;;5090012;28;20195;-90
2022/11/16 14:10:11;;;;;;;11.07;2.90;;;15.40;87.60;;;;;;5091019;28;20218;-91
2022/11/16 14:13:04;;;;;;;10.50;3.37;;;15.40;87.00;;;;;;5090830;28;20252;-90
2022/11/16 14:15:38;;;;;;;9.97;3.37;;;15.40;86.20;;;;;;5091183;28;20218;-92
2022/11/16 14:18:35;;;;;;;10.33;3.27;;;15.40;87.20;;;;;;5089296;28;20215;-91
2022/11/16 14:21:39;;;;;;;8.03;2.80;;;15.40;86.00;;;;;;5071606;28;20241;-90
2022/11/16 14:24:19;;;;;;;8.30;2.77;;;15.40;85.60;;;;;;5075205;28;20205;-92
2022/11/16 14:26:58;;;;;;;14.90;4.17;;;15.40;85.50;;;;;;5074616;28;20340;-91
2022/11/16 14:32:28;;;;;;;12.93;3.57;;;15.40;85.70;;;;;;5216501;27;20536;-93